Time;durP1;ratioP1;P1;durP2;ratioP2;P2;SDS_P1;SDS_P2;PMS_P1;PMS_P2;Temp;Humidity;BMP_temperature;BMP_pressure;BME280_temperature;BME280_humidity;BME280_pressure;Samples;Min_cycle;Max_cycle;Signal;HPM_P1;HPM_P2
2022/03/15 00:00:58;;;;;;;;;;;4.70;99.90;;;;;;5075058;28;20275;-57
2022/03/15 00:03:23;;;;;;;;;;;4.70;99.90;;;;;;5076623;28;19909;-57
2022/03/15 00:05:49;;;;;;;;;;;4.70;99.90;;;;;;5079786;28;19908;-57
2022/03/15 00:08:15;;;;;;;;;;;4.60;99.90;;;;;;5096416;28;20398;-57
2022/03/15 00:10:41;;;;;;;;;;;4.60;99.90;;;;;;5096674;28;19912;-57
2022/03/15 00:13:07;;;;;;;;;;;4.60;99.90;;;;;;5096643;28;19973;-57
2022/03/15 00:15:35;;;;;;;;;;;4.50;99.90;;;;;;5096019;28;20275;-57
2022/03/15 00:18:02;;;;;;;;;;;4.50;99.90;;;;;;5096579;28;19912;-57
2022/03/15 00:20:27;;;;;;;;;;;4.50;99.90;;;;;;5096470;28;20274;-57
2022/03/15 00:22:57;;;;;;;;;;;4.40;99.90;;;;;;5096011;28;19908;-57
2022/03/15 00:25:22;;;;;;;;;;;4.30;99.90;;;;;;5096341;28;19915;-57
2022/03/15 00:27:51;;;;;;;;;;;4.30;99.90;;;;;;5076714;28;19909;-57
2022/03/15 00:30:17;;;;;;;;;;;4.30;99.90;;;;;;5075680;28;19924;-57
2022/03/15 00:32:43;;;;;;;;;;;4.30;99.90;;;;;;5075959;28;20279;-57
2022/03/15 00:35:14;;;;;;;;;;;4.30;99.90;;;;;;5087829;28;19963;-57
2022/03/15 00:37:39;;;;;;;;;;;4.30;99.90;;;;;;5095641;28;19953;-57
2022/03/15 00:40:06;;;;;;;;;;;4.30;99.90;;;;;;5096111;28;19912;-57
2022/03/15 00:42:32;;;;;;;;;;;4.40;99.90;;;;;;5095899;28;19915;-57
2022/03/15 00:45:03;;;;;;;;;;;4.40;99.90;;;;;;5087234;28;19912;-57
2022/03/15 00:47:29;;;;;;;;;;;4.40;99.90;;;;;;5075899;28;20228;-58
2022/03/15 00:49:55;;;;;;;;;;;4.50;99.90;;;;;;5075839;28;20344;-57
2022/03/15 00:52:20;;;;;;;;;;;4.60;99.90;;;;;;5075290;28;19956;-57
2022/03/15 00:54:46;;;;;;;;;;;4.60;99.90;;;;;;5086345;28;19916;-57
2022/03/15 00:57:11;;;;;;;;;;;4.70;99.90;;;;;;5095088;28;19912;-57
2022/03/15 00:59:37;;;;;;;;;;;4.70;99.90;;;;;;5095770;28;19950;-57
2022/03/15 01:02:02;;;;;;;;;;;4.80;99.90;;;;;;5095935;28;19915;-57
2022/03/15 01:04:28;;;;;;;;;;;4.80;99.90;;;;;;5095302;28;20365;-58
2022/03/15 01:06:53;;;;;;;;;;;4.70;99.90;;;;;;5086269;28;19912;-57
2022/03/15 01:09:19;;;;;;;;;;;4.80;99.90;;;;;;5074237;28;19912;-57
2022/03/15 01:11:44;;;;;;;;;;;4.80;99.90;;;;;;5074731;28;19921;-58
2022/03/15 01:14:10;;;;;;;;;;;4.90;99.90;;;;;;5083304;28;19912;-57
2022/03/15 01:16:35;;;;;;;;;;;4.80;99.90;;;;;;5095376;28;20003;-57
2022/03/15 01:19:01;;;;;;;;;;;4.80;99.90;;;;;;5095093;28;19975;-57
2022/03/15 01:21:28;;;;;;;;;;;4.80;99.90;;;;;;5095390;28;19991;-57
2022/03/15 01:23:53;;;;;;;;;;;4.70;99.90;;;;;;5090016;28;19947;-57
2022/03/15 01:26:19;;;;;;;;;;;4.60;99.90;;;;;;5074553;28;20374;-57
2022/03/15 01:28:44;;;;;;;;;;;4.50;99.90;;;;;;5074925;28;19914;-57
2022/03/15 01:31:11;;;;;;;;;;;4.50;99.90;;;;;;5075092;28;20303;-57
2022/03/15 01:33:37;;;;;;;;;;;4.50;99.90;;;;;;5074227;28;19924;-57
2022/03/15 01:36:02;;;;;;;;;;;4.50;99.90;;;;;;5074740;28;19920;-57
2022/03/15 01:38:28;;;;;;;;;;;4.50;99.90;;;;;;5074789;28;20387;-57
2022/03/15 01:40:53;;;;;;;;;;;4.50;99.90;;;;;;5074394;28;19936;-57
2022/03/15 01:43:19;;;;;;;;;;;4.40;99.90;;;;;;5075839;28;20367;-57
2022/03/15 01:45:44;;;;;;;;;;;4.40;99.90;;;;;;5074703;28;20237;-57
2022/03/15 01:48:10;;;;;;;;;;;4.40;99.90;;;;;;5074178;28;19970;-57
2022/03/15 01:50:36;;;;;;;;;;;4.40;99.90;;;;;;5074632;28;19918;-57
2022/03/15 01:53:02;;;;;;;;;;;4.30;99.90;;;;;;5087445;28;20340;-57
2022/03/15 01:55:27;;;;;;;;;;;4.30;99.90;;;;;;5094151;28;20409;-57
2022/03/15 01:57:53;;;;;;;;;;;4.30;99.90;;;;;;5094806;28;19936;-57
2022/03/15 02:00:19;;;;;;;;;;;4.20;99.90;;;;;;5094661;28;19908;-57
2022/03/15 02:02:45;;;;;;;;;;;4.20;99.90;;;;;;5083238;28;19965;-57
2022/03/15 02:05:11;;;;;;;;;;;4.20;99.90;;;;;;5074444;28;19916;-57
2022/03/15 02:07:36;;;;;;;;;;;4.20;99.90;;;;;;5073693;28;19912;-57
2022/03/15 02:10:03;;;;;;;;;;;4.20;99.90;;;;;;5075913;28;19981;-57
2022/03/15 02:12:28;;;;;;;;;;;4.30;99.90;;;;;;5092545;28;19966;-57
2022/03/15 02:14:54;;;;;;;;;;;4.20;99.90;;;;;;5093887;28;19912;-57
2022/03/15 02:17:19;;;;;;;;;;;4.30;99.90;;;;;;5094432;28;19909;-57
2022/03/15 02:19:45;;;;;;;;;;;4.20;99.90;;;;;;5094294;28;19965;-57
2022/03/15 02:22:10;;;;;;;;;;;4.10;99.90;;;;;;5079299;28;19916;-57
2022/03/15 02:24:38;;;;;;;;;;;4.00;99.90;;;;;;5085401;28;19913;-57
2022/03/15 02:27:04;;;;;;;;;;;3.90;99.90;;;;;;5073823;28;19947;-57
2022/03/15 02:29:29;;;;;;;;;;;3.90;99.90;;;;;;5073224;28;19913;-57
2022/03/15 02:31:54;;;;;;;;;;;3.80;99.90;;;;;;5073822;28;19917;-57
2022/03/15 02:34:21;;;;;;;;;;;3.80;99.90;;;;;;5073612;28;19920;-58
2022/03/15 02:36:47;;;;;;;;;;;3.80;99.90;;;;;;5073152;28;20261;-57
2022/03/15 02:39:12;;;;;;;;;;;3.70;99.90;;;;;;5073787;28;19909;-58
2022/03/15 02:41:38;;;;;;;;;;;3.70;99.90;;;;;;5074711;28;19912;-57
2022/03/15 02:44:04;;;;;;;;;;;3.60;99.90;;;;;;5073332;28;20367;-57
2022/03/15 02:46:30;;;;;;;;;;;3.50;99.90;;;;;;5073587;28;19908;-57
2022/03/15 02:48:56;;;;;;;;;;;3.50;99.90;;;;;;5073667;28;20382;-57
2022/03/15 02:51:22;;;;;;;;;;;3.50;99.90;;;;;;5089695;28;19918;-57
2022/03/15 02:53:48;;;;;;;;;;;3.50;99.90;;;;;;5093710;28;20341;-57
2022/03/15 02:56:13;;;;;;;;;;;3.60;99.90;;;;;;5093881;28;20422;-57
2022/03/15 02:58:39;;;;;;;;;;;3.60;99.90;;;;;;5075062;28;19994;-57
2022/03/15 03:01:05;;;;;;;;;;;3.60;99.90;;;;;;5079086;28;19913;-58
2022/03/15 03:03:31;;;;;;;;;;;3.70;99.90;;;;;;5073392;28;20290;-58
2022/03/15 03:05:56;;;;;;;;;;;3.60;99.90;;;;;;5072915;28;19913;-57
2022/03/15 03:08:25;;;;;;;;;;;3.60;99.90;;;;;;5073360;28;19915;-57
2022/03/15 03:10:52;;;;;;;;;;;3.60;99.90;;;;;;5087613;28;19912;-57
2022/03/15 03:13:18;;;;;;;;;;;3.60;99.90;;;;;;5093477;28;19916;-57
2022/03/15 03:15:44;;;;;;;;;;;3.60;99.90;;;;;;5093452;28;19912;-57
2022/03/15 03:18:09;;;;;;;;;;;3.60;99.90;;;;;;5092967;28;20297;-57
2022/03/15 03:20:35;;;;;;;;;;;3.60;99.90;;;;;;5082775;28;19912;-57
2022/03/15 03:23:01;;;;;;;;;;;3.50;99.90;;;;;;5073509;28;19940;-57
2022/03/15 03:25:28;;;;;;;;;;;3.50;99.90;;;;;;5072817;28;19956;-57
2022/03/15 03:27:53;;;;;;;;;;;3.50;99.90;;;;;;5073968;28;20344;-57
2022/03/15 03:30:19;;;;;;;;;;;3.40;99.90;;;;;;5093434;28;19908;-57
2022/03/15 03:32:45;;;;;;;;;;;3.40;99.90;;;;;;5093837;28;20463;-57
2022/03/15 03:35:11;;;;;;;;;;;3.40;99.90;;;;;;5097124;28;19926;-58
2022/03/15 03:37:36;;;;;;;;;;;3.40;99.90;;;;;;5095576;28;20038;-57
2022/03/15 03:40:07;;;;;;;;;;;3.50;99.90;;;;;;5096923;28;19915;-57
2022/03/15 03:42:34;;;;;;;;;;;3.50;99.90;;;;;;5097273;28;19909;-57
2022/03/15 03:45:00;;;;;;;;;;;3.50;99.90;;;;;;5097364;28;19908;-58
2022/03/15 03:47:25;;;;;;;;;;;3.50;99.90;;;;;;5088335;28;20309;-57
2022/03/15 03:49:51;;;;;;;;;;;3.60;99.90;;;;;;5077026;28;19959;-58
2022/03/15 03:52:16;;;;;;;;;;;3.60;99.90;;;;;;5076781;28;20286;-57
2022/03/15 03:54:42;;;;;;;;;;;3.60;99.90;;;;;;5076319;28;20652;-57
2022/03/15 03:57:07;;;;;;;;;;;3.60;99.90;;;;;;5076894;28;20356;-57
2022/03/15 03:59:33;;;;;;;;;;;3.60;99.90;;;;;;5076699;28;20275;-57
2022/03/15 04:01:58;;;;;;;;;;;3.60;99.90;;;;;;5076164;28;19915;-58
2022/03/15 04:04:25;;;;;;;;;;;3.60;99.90;;;;;;5076584;28;19919;-58
2022/03/15 04:06:51;;;;;;;;;;;3.60;99.90;;;;;;5081690;28;20329;-57
2022/03/15 04:09:16;;;;;;;;;;;3.60;99.90;;;;;;5096280;28;19908;-57
2022/03/15 04:11:42;;;;;;;;;;;3.60;99.90;;;;;;5096640;28;19920;-57
2022/03/15 04:14:10;;;;;;;;;;;3.70;99.90;;;;;;5096118;28;19914;-58
2022/03/15 04:16:36;;;;;;;;;;;3.70;99.90;;;;;;5096590;28;19989;-58
2022/03/15 04:19:01;;;;;;;;;;;3.70;99.90;;;;;;5096840;28;20363;-57
2022/03/15 04:21:26;;;;;;;;;;;3.80;99.90;;;;;;5096045;28;19931;-58
2022/03/15 04:23:54;;;;;;;;;;;3.80;99.90;;;;;;5096650;28;19909;-58
2022/03/15 04:26:19;;;;;;;;;;;3.80;99.90;;;;;;5081645;28;20015;-58
2022/03/15 04:28:45;;;;;;;;;;;3.80;99.90;;;;;;5075485;28;19960;-58
2022/03/15 04:31:10;;;;;;;;;;;3.90;99.90;;;;;;5076167;28;19947;-58
2022/03/15 04:33:36;;;;;;;;;;;3.90;99.90;;;;;;5076613;28;19917;-57
2022/03/15 04:36:01;;;;;;;;;;;3.90;99.90;;;;;;5075675;28;19920;-58
2022/03/15 04:38:28;;;;;;;;;;;3.90;99.90;;;;;;5075817;28;19915;-58
2022/03/15 04:40:53;;;;;;;;;;;3.90;99.90;;;;;;5076117;28;19908;-58
2022/03/15 04:43:19;;;;;;;;;;;3.90;99.90;;;;;;5076210;28;19944;-57
2022/03/15 04:45:44;;;;;;;;;;;3.90;99.90;;;;;;5075915;28;19909;-58
2022/03/15 04:48:10;;;;;;;;;;;3.90;99.90;;;;;;5075807;28;20002;-58
2022/03/15 04:50:35;;;;;;;;;;;3.90;99.90;;;;;;5075152;28;19912;-58
2022/03/15 04:53:01;;;;;;;;;;;4.00;99.90;;;;;;5086329;28;19928;-57
2022/03/15 04:55:26;;;;;;;;;;;4.00;99.90;;;;;;5095948;28;19915;-58
2022/03/15 04:57:52;;;;;;;;;;;4.10;99.90;;;;;;5095508;28;19912;-57
2022/03/15 05:00:18;;;;;;;;;;;4.10;99.90;;;;;;5095949;28;19947;-58
2022/03/15 05:02:44;;;;;;;;;;;4.10;99.90;;;;;;5087841;28;19916;-58
2022/03/15 05:05:10;;;;;;;;;;;4.20;99.90;;;;;;5075015;28;19915;-58
2022/03/15 05:07:36;;;;;;;;;;;4.20;99.90;;;;;;5075381;28;20366;-57
2022/03/15 05:12:46;;;;;;;;;;;4.30;99.90;;;;;;5083002;28;19931;-58
2022/03/15 05:15:11;;;;;;;;;;;4.30;99.90;;;;;;5095603;28;19912;-58
2022/03/15 05:17:37;;;;;;;;;;;4.30;99.90;;;;;;5095034;28;19912;-58
2022/03/15 05:20:05;;;;;;;;;;;4.30;99.90;;;;;;5093229;28;19912;-58
2022/03/15 05:22:31;;;;;;;;;;;4.40;99.90;;;;;;5095484;28;19926;-58
2022/03/15 05:24:56;;;;;;;;;;;4.40;99.90;;;;;;5095022;28;19961;-58
2022/03/15 05:27:22;;;;;;;;;;;4.40;99.90;;;;;;5095373;28;19962;-58
2022/03/15 05:29:47;;;;;;;;;;;4.50;99.90;;;;;;5095287;28;19915;-57
2022/03/15 05:32:13;;;;;;;;;;;4.50;99.90;;;;;;5094678;28;19916;-57
2022/03/15 05:34:38;;;;;;;;;;;4.50;99.90;;;;;;5094880;28;19920;-57
2022/03/15 05:37:04;;;;;;;;;;;4.50;99.90;;;;;;5095277;28;19915;-57
2022/03/15 05:39:29;;;;;;;;;;;4.60;99.90;;;;;;5092832;28;19912;-58
2022/03/15 05:41:55;;;;;;;;;;;4.60;99.90;;;;;;5094693;28;19934;-57
2022/03/15 05:44:21;;;;;;;;;;;4.60;99.90;;;;;;5095026;28;19996;-57
2022/03/15 05:46:46;;;;;;;;;;;4.60;99.90;;;;;;5094445;28;19919;-58
2022/03/15 05:49:11;;;;;;;;;;;4.60;99.90;;;;;;5085425;28;19912;-57
2022/03/15 05:51:37;;;;;;;;;;;4.60;99.90;;;;;;5074629;28;19954;-58
2022/03/15 05:54:03;;;;;;;;;;;4.70;99.90;;;;;;5074094;28;19912;-57
2022/03/15 05:56:28;;;;;;;;;;;4.70;99.90;;;;;;5073931;28;20306;-57
2022/03/15 05:58:54;;;;;;;;;;;4.70;99.90;;;;;;5080125;28;19920;-58
2022/03/15 06:01:19;;;;;;;;;;;4.70;99.90;;;;;;5094232;28;19909;-58
2022/03/15 06:03:45;;;;;;;;;;;4.70;99.90;;;;;;5094645;28;19911;-58
2022/03/15 06:06:10;;;;;;;;;;;4.60;99.90;;;;;;5094618;28;19908;-57
2022/03/15 06:08:36;;;;;;;;;;;4.60;99.90;;;;;;5091289;28;19920;-58
2022/03/15 06:11:02;;;;;;;;;;;4.60;99.90;;;;;;5074252;28;19913;-57
2022/03/15 06:13:29;;;;;;;;;;;4.60;99.90;;;;;;5073878;28;19916;-58
2022/03/15 06:15:54;;;;;;;;;;;4.60;99.90;;;;;;5073856;28;19909;-57
2022/03/15 06:18:20;;;;;;;;;;;4.70;99.90;;;;;;5074286;28;19951;-58
2022/03/15 06:20:45;;;;;;;;;;;4.70;99.90;;;;;;5090574;28;19912;-58
2022/03/15 06:23:11;;;;;;;;;;;4.70;99.90;;;;;;5094221;28;19931;-57
2022/03/15 06:25:36;;;;;;;;;;;4.70;99.90;;;;;;5094276;28;19915;-58
2022/03/15 06:28:02;;;;;;;;;;;4.70;99.90;;;;;;5093607;28;20367;-57
2022/03/15 06:30:28;;;;;;;;;;;4.70;99.90;;;;;;5094147;28;20248;-58
2022/03/15 06:32:53;;;;;;;;;;;4.70;99.90;;;;;;5093984;28;19923;-58
2022/03/15 06:35:20;;;;;;;;;;;4.80;99.90;;;;;;5093386;28;20262;-58
2022/03/15 06:37:46;;;;;;;;;;;4.80;99.90;;;;;;5094057;28;19915;-58
2022/03/15 06:40:23;;;;;;;;;;;4.90;99.90;;;;;;5079081;28;19912;-57
2022/03/15 06:42:48;;;;;;;;;;;4.90;99.90;;;;;;5073229;28;19915;-58
2022/03/15 06:45:15;;;;;;;;;;;4.90;99.90;;;;;;5073791;28;19908;-58
2022/03/15 06:47:40;;;;;;;;;;;5.00;99.90;;;;;;5079022;28;20390;-57
2022/03/15 06:50:08;;;;;;;;;;;5.10;99.90;;;;;;5093509;28;19922;-57
2022/03/15 06:52:34;;;;;;;;;;;5.10;99.90;;;;;;5093594;28;19963;-57
2022/03/15 06:54:59;;;;;;;;;;;5.20;99.90;;;;;;5093769;28;19908;-58
2022/03/15 06:57:24;;;;;;;;;;;5.20;99.90;;;;;;5089621;28;19912;-58
2022/03/15 06:59:50;;;;;;;;;;;5.30;99.90;;;;;;5073553;28;19962;-58
2022/03/15 07:02:15;;;;;;;;;;;5.30;99.90;;;;;;5073484;28;20038;-58
2022/03/15 07:04:41;;;;;;;;;;;5.40;99.90;;;;;;5072900;28;19951;-58
2022/03/15 07:07:07;;;;;;;;;;;5.40;99.90;;;;;;5073779;28;19912;-58
2022/03/15 07:09:32;;;;;;;;;;;5.50;99.90;;;;;;5093562;28;19922;-57
2022/03/15 07:11:58;;;;;;;;;;;5.50;99.90;;;;;;5093008;28;20370;-58
2022/03/15 07:14:23;;;;;;;;;;;5.50;99.90;;;;;;5093181;28;19908;-58
2022/03/15 07:16:49;;;;;;;;;;;5.60;99.90;;;;;;5092869;28;19912;-58
2022/03/15 07:19:14;;;;;;;;;;;5.70;99.90;;;;;;5109309;28;20277;-58
2022/03/15 07:21:40;;;;;;;;;;;5.80;99.90;;;;;;5077402;28;20397;-57
2022/03/15 07:24:06;;;;;;;;;;;5.90;99.90;;;;;;5071852;28;19949;-58
2022/03/15 07:26:32;;;;;;;;;;;5.90;99.90;;;;;;5072287;28;19999;-58
2022/03/15 07:28:58;;;;;;;;;;;6.00;99.90;;;;;;5080198;28;19965;-57
2022/03/15 07:31:24;;;;;;;;;;;6.10;99.90;;;;;;5091966;28;19908;-57
2022/03/15 07:33:49;;;;;;;;;;;6.20;99.90;;;;;;5092288;28;19920;-58
2022/03/15 07:36:16;;;;;;;;;;;6.30;99.90;;;;;;5100309;28;19916;-58
2022/03/15 07:38:41;;;;;;;;;;;6.40;99.90;;;;;;5093439;28;19981;-57
2022/03/15 07:41:06;;;;;;;;;;;6.50;99.90;;;;;;5092843;28;20359;-58
2022/03/15 07:43:32;;;;;;;;;;;6.60;99.90;;;;;;5091881;28;19995;-58
2022/03/15 07:45:57;;;;;;;;;;;6.70;99.90;;;;;;5072290;28;19912;-57
2022/03/15 07:48:23;;;;;;;;;;;6.80;99.90;;;;;;5070976;28;19912;-57
2022/03/15 07:50:49;;;;;;;;;;;6.90;99.90;;;;;;5073363;28;19931;-58
2022/03/15 07:53:14;;;;;;;;;;;6.90;99.90;;;;;;5098142;28;20018;-58
2022/03/15 07:55:40;;;;;;;;;;;7.00;99.90;;;;;;5112913;28;20378;-58
2022/03/15 07:58:05;;;;;;;;;;;7.00;99.90;;;;;;5113038;28;19973;-58
2022/03/15 08:00:31;;;;;;;;;;;7.10;99.90;;;;;;5112024;28;20282;-58
2022/03/15 08:02:56;;;;;;;;;;;7.10;99.90;;;;;;5112819;28;19907;-58
2022/03/15 08:05:22;;;;;;;;;;;7.20;99.90;;;;;;5112639;28;19960;-58
2022/03/15 08:07:48;;;;;;;;;;;7.20;99.90;;;;;;5112325;28;19988;-58
2022/03/15 08:10:13;;;;;;;;;;;7.30;99.90;;;;;;5098287;28;19912;-57
2022/03/15 08:12:39;;;;;;;;;;;7.30;99.90;;;;;;5092282;28;19916;-58
2022/03/15 08:15:06;;;;;;;;;;;7.30;99.90;;;;;;5091937;28;19908;-58
2022/03/15 08:17:32;;;;;;;;;;;7.40;99.90;;;;;;5092070;28;19914;-57
2022/03/15 08:19:58;;;;;;;;;;;7.40;99.90;;;;;;5095132;28;19931;-58
2022/03/15 08:22:25;;;;;;;;;;;7.40;99.90;;;;;;5095289;28;20036;-58
2022/03/15 08:24:50;;;;;;;;;;;7.50;99.90;;;;;;5095903;28;19908;-58
2022/03/15 08:27:16;;;;;;;;;;;7.50;99.90;;;;;;5095258;28;20023;-58
2022/03/15 08:29:43;;;;;;;;;;;7.60;99.90;;;;;;5095800;28;19908;-58
2022/03/15 08:32:08;;;;;;;;;;;7.60;99.90;;;;;;5095738;28;19916;-58
2022/03/15 08:34:34;;;;;;;;;;;7.60;99.90;;;;;;5094944;28;19931;-57
2022/03/15 08:37:00;;;;;;;;;;;7.60;99.90;;;;;;5095825;28;19919;-57
2022/03/15 08:39:26;;;;;;;;;;;7.70;99.90;;;;;;5095413;28;20009;-57
2022/03/15 08:41:52;;;;;;;;;;;7.70;99.90;;;;;;5095083;28;19909;-57
2022/03/15 08:44:18;;;;;;;;;;;7.80;99.90;;;;;;5095312;28;19916;-58
2022/03/15 08:46:45;;;;;;;;;;;7.80;99.90;;;;;;5109398;28;20282;-57
2022/03/15 08:49:11;;;;;;;;;;;7.80;99.90;;;;;;5115115;28;20406;-57
2022/03/15 08:51:36;;;;;;;;;;;7.90;99.90;;;;;;5115770;28;19959;-58
2022/03/15 08:54:02;;;;;;;;;;;7.90;99.90;;;;;;5115569;28;19919;-57
2022/03/15 08:56:27;;;;;;;;;;;7.90;99.90;;;;;;5114937;28;19915;-58
2022/03/15 08:58:54;;;;;;;;;;;8.00;99.90;;;;;;5115811;28;20381;-57
2022/03/15 09:01:19;;;;;;;;;;;8.00;99.90;;;;;;5115386;28;19930;-57
2022/03/15 09:03:44;;;;;;;;;;;8.00;99.90;;;;;;5115015;28;20338;-57
2022/03/15 09:06:10;;;;;;;;;;;8.00;99.90;;;;;;5115555;28;20376;-57
2022/03/15 09:08:35;;;;;;;;;;;8.10;99.90;;;;;;5115213;28;20227;-57
2022/03/15 09:11:03;;;;;;;;;;;8.10;99.90;;;;;;5114888;28;19908;-58
2022/03/15 09:13:29;;;;;;;;;;;8.10;99.90;;;;;;5083363;28;19924;-57
2022/03/15 09:15:54;;;;;;;;;;;8.10;99.90;;;;;;5108372;28;19961;-57
2022/03/15 09:18:20;;;;;;;;;;;8.10;99.90;;;;;;5114520;28;20003;-57
2022/03/15 09:20:46;;;;;;;;;;;8.10;99.90;;;;;;5115144;28;19961;-57
2022/03/15 09:23:11;;;;;;;;;;;8.10;99.90;;;;;;5102720;28;20330;-57
2022/03/15 09:25:37;;;;;;;;;;;8.10;99.90;;;;;;5094237;28;19916;-57
2022/03/15 09:28:03;;;;;;;;;;;8.10;99.90;;;;;;5094674;28;19943;-58
2022/03/15 09:30:30;;;;;;;;;;;8.10;99.90;;;;;;5093005;28;20043;-58
2022/03/15 09:32:57;;;;;;;;;;;8.10;99.90;;;;;;5089069;28;20007;-57
2022/03/15 09:35:23;;;;;;;;;;;8.10;99.90;;;;;;5073617;28;19936;-57
2022/03/15 09:37:49;;;;;;;;;;;8.10;99.90;;;;;;5073917;28;20082;-57
2022/03/15 09:40:17;;;;;;;;;;;8.10;99.90;;;;;;5073868;28;20375;-58
2022/03/15 09:42:44;;;;;;;;;;;8.20;99.90;;;;;;5082489;28;19912;-57
2022/03/15 09:45:09;;;;;;;;;;;8.30;99.90;;;;;;5093574;28;19912;-57
2022/03/15 09:47:36;;;;;;;;;;;8.30;99.90;;;;;;5094064;28;19953;-58
2022/03/15 09:50:03;;;;;;;;;;;8.30;99.90;;;;;;5094072;28;19908;-57
2022/03/15 09:52:28;;;;;;;;;;;8.40;99.90;;;;;;5085963;28;20509;-57
2022/03/15 09:54:55;;;;;;;;;;;8.40;99.90;;;;;;5073479;28;19955;-57
2022/03/15 09:57:20;;;;;;;;;;;8.50;99.90;;;;;;5073785;28;19951;-57
2022/03/15 09:59:49;;;;;;;;;;;8.60;99.90;;;;;;5073262;28;19939;-58
2022/03/15 10:02:15;;;;;;;;;;;8.60;99.90;;;;;;5091028;28;19912;-57
2022/03/15 10:04:40;;;;;;;;;;;8.60;99.90;;;;;;5093975;28;19908;-57
2022/03/15 10:07:08;;;;;;;;;;;8.70;99.90;;;;;;5093500;28;20343;-57
2022/03/15 10:09:34;;;;;;;;;;;8.80;99.90;;;;;;5093712;28;19912;-57
2022/03/15 10:11:59;;;;;;;;;;;8.80;99.90;;;;;;5076563;28;19921;-57
2022/03/15 10:14:25;;;;;;;;;;;8.90;99.90;;;;;;5072136;28;19962;-57
2022/03/15 10:16:50;;;;;;;;;;;9.00;99.90;;;;;;5073356;28;20447;-58
2022/03/15 10:19:16;;;;;;;;;;;9.10;99.90;;;;;;5072843;28;19931;-57
2022/03/15 10:21:49;;;;;;;;;;;9.10;99.90;;;;;;5072787;28;19915;-57
2022/03/15 10:24:17;;;;;;;;;;;9.20;99.90;;;;;;5072972;28;19908;-57
2022/03/15 10:26:43;;;;;;;;;;;9.30;99.90;;;;;;5072783;28;19948;-57
2022/03/15 10:29:11;;;;;;;;;;;9.40;99.90;;;;;;5072361;28;20320;-57
2022/03/15 10:31:37;;;;;;;;;;;9.40;99.90;;;;;;5083981;28;19916;-57
2022/03/15 10:34:04;;;;;;;;;;;9.50;99.90;;;;;;5091597;28;19916;-57
2022/03/15 10:36:38;;;;;;;;;;;9.60;99.90;;;;;;5092292;28;19908;-57
2022/03/15 10:39:03;;;;;;;;;;;9.60;99.90;;;;;;5093373;28;19916;-57
2022/03/15 10:41:29;;;;;;;;;;;9.70;99.90;;;;;;5090448;28;19916;-57
2022/03/15 10:43:55;;;;;;;;;;;9.70;99.90;;;;;;5093133;28;19908;-57
2022/03/15 10:46:21;;;;;;;;;;;9.70;99.90;;;;;;5092880;28;19916;-58
2022/03/15 10:48:47;;;;;;;;;;;9.60;99.90;;;;;;5092648;28;19908;-57
2022/03/15 10:51:15;;;;;;;;;;;9.70;99.90;;;;;;5084653;28;20232;-57
2022/03/15 10:53:42;;;;;;;;;;;9.70;99.90;;;;;;5072411;28;19916;-58
2022/03/15 10:56:09;;;;;;;;;;;9.80;99.90;;;;;;5071680;28;20536;-57
2022/03/15 10:58:34;;;;;;;;;;;9.90;99.90;;;;;;5072176;28;20363;-57
2022/03/15 11:01:00;;;;;;;;;;;10.10;99.90;;;;;;5077890;28;19919;-57
2022/03/15 11:03:29;;;;;;;;;;;10.30;99.90;;;;;;5091944;28;20244;-57
2022/03/15 11:05:56;;;;;;;;;;;10.40;99.90;;;;;;5092915;28;19998;-58
2022/03/15 11:08:22;;;;;;;;;;;10.60;99.90;;;;;;5092839;28;19952;-57
2022/03/15 11:10:51;;;;;;;;;;;10.70;99.90;;;;;;5092559;28;19947;-57
2022/03/15 11:13:17;;;;;;;;;;;10.80;99.90;;;;;;5092330;28;19969;-57
2022/03/15 11:15:47;;;;;;;;;;;10.90;99.90;;;;;;5093049;28;19966;-57
2022/03/15 11:18:13;;;;;;;;;;;11.10;99.90;;;;;;5092154;28;20332;-58
2022/03/15 11:20:40;;;;;;;;;;;11.20;99.90;;;;;;5076443;28;19955;-57
2022/03/15 11:23:10;;;;;;;;;;;11.20;99.90;;;;;;5080211;28;19916;-57
2022/03/15 11:25:40;;;;;;;;;;;11.30;99.90;;;;;;5092649;28;20310;-57
2022/03/15 11:28:09;;;;;;;;;;;11.40;99.90;;;;;;5091474;28;19915;-57
2022/03/15 11:30:35;;;;;;;;;;;11.40;99.90;;;;;;5091930;28;19912;-57
2022/03/15 11:33:02;;;;;;;;;;;11.60;99.90;;;;;;5092645;28;19916;-57
2022/03/15 11:35:30;;;;;;;;;;;11.60;99.90;;;;;;5092112;28;20019;-57
2022/03/15 11:37:57;;;;;;;;;;;11.60;99.90;;;;;;5084921;28;19963;-57
2022/03/15 11:40:24;;;;;;;;;;;11.70;99.90;;;;;;5071809;28;19916;-57
2022/03/15 11:42:52;;;;;;;;;;;11.80;99.90;;;;;;5072559;28;19999;-57
2022/03/15 11:45:17;;;;;;;;;;;11.80;99.90;;;;;;5071443;28;20374;-57
2022/03/15 11:47:57;;;;;;;;;;;11.90;99.90;;;;;;5073435;28;20011;-57
2022/03/15 11:50:38;;;;;;;;;;;11.90;99.90;;;;;;5072056;28;19948;-57
2022/03/15 11:53:06;;;;;;;;;;;12.00;99.90;;;;;;5071671;28;19920;-57
2022/03/15 11:55:44;;;;;;;;;;;12.00;99.90;;;;;;5075806;28;20363;-57
2022/03/15 11:58:10;;;;;;;;;;;12.00;99.90;;;;;;5083755;28;19912;-57
2022/03/15 12:00:44;;;;;;;;;;;12.00;99.90;;;;;;5096096;28;19908;-57
2022/03/15 12:03:10;;;;;;;;;;;12.10;99.90;;;;;;5096232;28;19908;-57
2022/03/15 12:05:43;;;;;;;;;;;12.10;99.90;;;;;;5095755;28;19915;-57
2022/03/15 12:08:16;;;;;;;;;;;12.10;99.90;;;;;;5088041;28;19912;-57
2022/03/15 12:10:55;;;;;;;;;;;12.10;99.90;;;;;;5075842;28;19953;-57
2022/03/15 12:13:31;;;;;;;;;;;12.10;99.90;;;;;;5074992;28;20413;-57
2022/03/15 12:16:09;;;;;;;;;;;12.10;99.90;;;;;;5075558;28;19909;-57
2022/03/15 12:18:43;;;;;;;;;;;12.10;99.90;;;;;;5075371;28;20335;-57
2022/03/15 12:21:10;;;;;;;;;;;12.10;99.90;;;;;;5074753;28;20248;-57
2022/03/15 12:23:46;;;;;;;;;;;12.10;99.90;;;;;;5075845;28;19913;-57
2022/03/15 12:26:18;;;;;;;;;;;12.20;99.90;;;;;;5091930;28;20015;-57
2022/03/15 12:28:53;;;;;;;;;;;12.20;99.90;;;;;;5095662;28;20350;-57
2022/03/15 12:31:20;;;;;;;;;;;12.30;99.90;;;;;;5095500;28;19908;-57
2022/03/15 12:33:59;;;;;;;;;;;12.40;99.90;;;;;;5095187;28;19923;-57
2022/03/15 12:36:34;;;;;;;;;;;12.40;99.90;;;;;;5076770;28;19932;-57
2022/03/15 12:39:06;;;;;;;;;;;12.50;99.90;;;;;;5075400;28;19908;-57
2022/03/15 12:41:32;;;;;;;;;;;12.60;99.90;;;;;;5074629;28;19909;-57
2022/03/15 12:43:57;;;;;;;;;;;12.70;99.90;;;;;;5075390;28;19912;-57
2022/03/15 12:46:30;;;;;;;;;;;12.70;99.90;;;;;;5074799;28;19913;-57
2022/03/15 12:49:04;;;;;;;;;;;12.80;99.90;;;;;;5074777;28;19970;-57
2022/03/15 12:51:37;;;;;;;;;;;12.80;99.90;;;;;;5074834;28;20387;-57
2022/03/15 12:54:07;;;;;;;;;;;12.90;99.90;;;;;;5075430;28;19920;-57
2022/03/15 12:56:32;;;;;;;;;;;13.00;99.90;;;;;;5094244;28;19908;-57
2022/03/15 12:58:58;;;;;;;;;;;13.00;99.90;;;;;;5095060;28;20014;-57
2022/03/15 13:01:25;;;;;;;;;;;13.00;99.90;;;;;;5095185;28;19908;-57
2022/03/15 13:03:51;;;;;;;;;;;13.10;99.90;;;;;;5094629;28;19961;-57
2022/03/15 13:06:18;;;;;;;;;;;13.10;99.90;;;;;;5075952;28;19912;-57
2022/03/15 13:08:55;;;;;;;;;;;13.10;99.90;;;;;;5074359;28;20306;-57
2022/03/15 13:11:20;;;;;;;;;;;13.30;99.90;;;;;;5074293;28;19909;-57
2022/03/15 13:13:46;;;;;;;;;;;13.60;99.90;;;;;;5074613;28;19923;-57
2022/03/15 13:16:12;;;;;;;;;;;13.90;99.90;;;;;;5089781;28;19913;-56
2022/03/15 13:18:41;;;;;;;;;;;14.10;99.90;;;;;;5094809;28;19912;-57
2022/03/15 13:21:07;;;;;;;;;;;14.40;99.90;;;;;;5094857;28;19923;-57
2022/03/15 13:23:35;;;;;;;;;;;14.60;99.90;;;;;;5087743;28;20010;-57
2022/03/15 13:26:04;;;;;;;;;;;14.90;99.90;;;;;;5074684;28;19916;-56
2022/03/15 13:28:37;;;;;;;;;;;15.20;99.90;;;;;;5073678;28;19950;-57
2022/03/15 13:31:07;;;;;;;;;;;15.40;99.90;;;;;;5073858;28;19961;-57
2022/03/15 13:33:38;;;;;;;;;;;15.60;99.90;;;;;;5074893;28;19924;-57
2022/03/15 13:36:07;;;;;;;;;;;15.90;99.90;;;;;;5082805;28;19920;-56
2022/03/15 13:38:37;;;;;;;;;;;16.00;99.90;;;;;;5093648;28;19968;-57
2022/03/15 13:41:07;;;;;;;;;;;16.10;99.90;;;;;;5094523;28;20259;-57
2022/03/15 13:43:33;;;;;;;;;;;16.30;99.90;;;;;;5093383;28;19916;-57
2022/03/15 13:46:03;;;;;;;;;;;16.40;99.90;;;;;;5094103;28;19908;-57
2022/03/15 13:48:32;;;;;;;;;;;16.70;99.90;;;;;;5094032;28;19912;-56
2022/03/15 13:51:04;;;;;;;;;;;16.90;99.90;;;;;;5093725;28;19920;-57
2022/03/15 13:53:29;;;;;;;;;;;17.20;99.90;;;;;;5093616;28;19920;-57
2022/03/15 13:56:05;;;;;;;;;;;17.30;99.90;;;;;;5094301;28;19931;-57
2022/03/15 13:58:31;;;;;;;;;;;17.50;99.90;;;;;;5093364;28;20008;-57
2022/03/15 14:01:00;;;;;;;;;;;17.80;99.90;;;;;;5094202;28;19940;-57
2022/03/15 14:03:30;;;;;;;;;;;17.90;93.00;;;;;;5076161;28;20379;-57
2022/03/15 14:06:09;;;;;;;;;;;18.00;99.90;;;;;;5073060;28;20416;-57
2022/03/15 14:08:43;;;;;;;;;;;18.20;99.90;;;;;;5073578;28;20290;-57
2022/03/15 14:11:12;;;;;;;;;;;18.40;99.90;;;;;;5073352;28;20374;-58
2022/03/15 14:13:41;;;;;;;;;;;18.60;99.90;;;;;;5091317;28;19935;-57
2022/03/15 14:16:08;;;;;;;;;;;18.80;87.80;;;;;;5093283;28;19912;-57
2022/03/15 14:18:34;;;;;;;;;;;18.90;94.70;;;;;;5093806;28;19918;-57
2022/03/15 14:21:00;;;;;;;;;;;19.00;92.90;;;;;;5093217;28;20385;-57
2022/03/15 14:23:27;;;;;;;;;;;19.10;91.90;;;;;;5076169;28;19912;-57
2022/03/15 14:25:58;;;;;;;;;;;19.30;92.80;;;;;;5073059;28;20343;-57